| Date | Time | Temp. (oF) | Dew Point (oF) | Rel. Hum. (%) | Press. (in.) | Wind Dir. | Wind Speed (mph) | Hourly Rainfall (in.) |
|
|---|---|---|---|---|---|---|---|---|---|
| 1 | 03/29 | 00:00 | 63 | 42 | 47 | 29.64 | WSW | 7 | 0.00 |
| 2 | 03/28 | 23:00 | 61 | 53 | 76 | 29.63 | SW | 4 | 0.00 |
| 3 | 03/28 | 22:00 | 61 | 55 | 81 | 29.62 | WSW | 2 | 0.00 |
| 4 | 03/28 | 21:00 | 63 | 56 | 78 | 29.61 | SSW | 2 | 0.00 |
| 5 | 03/28 | 20:00 | 64 | 55 | 73 | 29.60 | S | 6 | 0.00 |
| 6 | 03/28 | 19:00 | 66 | 55 | 68 | 29.59 | SSW | 8 | 0.00 |
| 7 | 03/28 | 18:00 | 67 | 55 | 67 | 29.60 | SSW | 9 | 0.00 |
| 8 | 03/28 | 17:00 | 66 | 55 | 68 | 29.62 | SSW | 7 | 0.00 |
| 9 | 03/28 | 16:00 | 65 | 52 | 65 | 29.64 | S | 15 | 0.00 |
| 10 | 03/28 | 15:00 | 61 | 51 | 71 | 29.69 | SSW | 5 | 0.00 |
| 11 | 03/28 | 14:00 | 57 | 53 | 87 | 29.73 | NE | 3 | 0.03 |
| 12 | 03/28 | 13:00 | 63 | 44 | 51 | 29.74 | WSW | 2 | 0.00 |
| 13 | 03/28 | 12:00 | 62 | 40 | 45 | 29.78 | SSW | 5 | 0.00 |
| 14 | 03/28 | 11:00 | 58 | 38 | 48 | 29.82 | SSW | 8 | 0.00 |
| 15 | 03/28 | 10:00 | 52 | 35 | 53 | 29.87 | SW | 5 | 0.00 |
| 16 | 03/28 | 09:00 | 48 | 30 | 50 | 29.90 | SSW | 5 | 0.00 |
| 17 | 03/28 | 08:00 | 45 | 29 | 54 | 29.94 | S | 5 | 0.00 |
| 18 | 03/28 | 07:00 | 44 | 27 | 52 | 29.97 | SSW | 6 | 0.00 |
| 19 | 03/28 | 06:00 | 44 | 26 | 50 | 29.99 | SW | 9 | 0.00 |
| 20 | 03/28 | 05:00 | 43 | 26 | 52 | 30.03 | SW | 3 | 0.00 |
| 21 | 03/28 | 04:00 | 44 | 27 | 52 | 30.05 | SW | 14 | 0.00 |
| 22 | 03/28 | 03:00 | 42 | 29 | 62 | 30.11 | SW | 4 | 0.00 |
| 23 | 03/28 | 02:00 | 39 | 29 | 69 | 30.13 | SSW | 4 | 0.00 |
| 24 | 03/28 | 01:00 | 39 | 27 | 62 | 30.16 | SSW | 6 | 0.00 |